Time;durP1;ratioP1;P1;durP2;ratioP2;P2;SDS_P1;SDS_P2;PMS_P1;PMS_P2;Temp;Humidity;BMP_temperature;BMP_pressure;BME280_temperature;BME280_humidity;BME280_pressure;Samples;Min_cycle;Max_cycle;Signal;HPM_P1;HPM_P2
2022/09/21 00:00:35;;;;;;;3.70;3.40;;;8.60;99.90;;;;;;5013290;28;20192;-67
2022/09/21 00:03:00;;;;;;;3.13;2.93;;;8.60;99.90;;;;;;5019833;28;20583;-67
2022/09/21 00:05:26;;;;;;;4.60;3.33;;;8.60;99.90;;;;;;5025988;28;20190;-68
2022/09/21 00:07:51;;;;;;;3.33;3.00;;;8.50;99.90;;;;;;5024535;28;20195;-67
2022/09/21 00:10:19;;;;;;;4.20;3.03;;;8.50;99.90;;;;;;5025661;28;20194;-67
2022/09/21 00:12:46;;;;;;;4.07;3.27;;;8.50;99.90;;;;;;5029546;28;20278;-67
2022/09/21 00:15:12;;;;;;;3.67;3.07;;;8.50;99.90;;;;;;5025371;28;20175;-67
2022/09/21 00:17:38;;;;;;;4.60;3.43;;;8.50;99.90;;;;;;5038136;28;20214;-67
2022/09/21 00:20:04;;;;;;;3.00;2.80;;;8.50;99.90;;;;;;5026328;28;20192;-68
2022/09/21 00:22:30;;;;;;;3.17;2.97;;;8.50;99.90;;;;;;5031731;28;20245;-68
2022/09/21 00:24:56;;;;;;;3.20;3.00;;;8.40;99.90;;;;;;5015452;28;20188;-68
2022/09/21 00:27:28;;;;;;;3.50;3.20;;;8.40;99.90;;;;;;5029492;28;20594;-68
2022/09/21 00:29:57;;;;;;;3.33;3.13;;;8.50;99.90;;;;;;5019388;28;20331;-69
2022/09/21 00:32:24;;;;;;;3.07;2.87;;;8.40;99.90;;;;;;5034521;28;20199;-67
2022/09/21 00:34:50;;;;;;;3.70;3.10;;;8.30;99.90;;;;;;5018025;28;20247;-67
2022/09/21 00:37:16;;;;;;;4.00;3.60;;;8.30;99.90;;;;;;5030585;28;20628;-67
2022/09/21 00:39:42;;;;;;;4.37;2.93;;;8.30;99.90;;;;;;5016295;28;20209;-67
2022/09/21 00:42:13;;;;;;;3.80;2.87;;;8.30;99.90;;;;;;5031517;28;20512;-67
2022/09/21 00:44:38;;;;;;;3.20;2.90;;;8.20;99.90;;;;;;5021134;28;20214;-67
2022/09/21 00:47:23;;;;;;;4.03;3.53;;;8.20;99.90;;;;;;5031308;28;20199;-67
2022/09/21 00:49:53;;;;;;;3.80;3.50;;;8.20;99.90;;;;;;5021897;28;20299;-67
2022/09/21 00:52:21;;;;;;;3.20;3.00;;;8.30;99.90;;;;;;5031790;28;20265;-67
2022/09/21 00:54:56;;;;;;;4.03;3.70;;;8.30;99.90;;;;;;5024604;28;20199;-68
2022/09/21 00:57:26;;;;;;;4.73;3.20;;;8.20;99.90;;;;;;5025533;28;20214;-67
2022/09/21 00:59:55;;;;;;;3.00;2.80;;;8.20;99.90;;;;;;5021982;28;20256;-67
2022/09/21 01:02:21;;;;;;;2.90;2.70;;;8.20;99.90;;;;;;5045311;28;20191;-67
2022/09/21 01:04:47;;;;;;;4.23;3.83;;;8.10;99.90;;;;;;5014516;28;20662;-67
2022/09/21 01:07:21;;;;;;;3.50;3.07;;;8.10;99.90;;;;;;5034150;28;20192;-68
2022/09/21 01:09:50;;;;;;;3.00;2.80;;;8.10;99.90;;;;;;5015508;28;20215;-68
2022/09/21 01:12:41;;;;;;;3.13;2.83;;;8.10;99.90;;;;;;5026832;28;20339;-67
2022/09/21 01:15:37;;;;;;;4.00;3.33;;;8.10;99.90;;;;;;5009163;28;20198;-67
2022/09/21 01:18:30;;;;;;;5.17;3.20;;;8.10;99.90;;;;;;5014385;28;20299;-67
2022/09/21 01:21:06;;;;;;;4.90;3.07;;;8.10;99.90;;;;;;5041217;28;20274;-67
2022/09/21 01:23:41;;;;;;;3.23;3.00;;;8.10;99.90;;;;;;5010821;28;20438;-67
2022/09/21 01:26:28;;;;;;;3.80;3.50;;;8.10;99.90;;;;;;5017106;28;20413;-67
2022/09/21 01:29:19;;;;;;;5.00;3.07;;;8.10;99.90;;;;;;5017268;28;20696;-67
2022/09/21 01:32:01;;;;;;;4.03;3.03;;;8.10;99.90;;;;;;5013921;28;20234;-67
2022/09/21 01:34:41;;;;;;;3.57;3.27;;;8.10;99.90;;;;;;5018858;28;20203;-67
2022/09/21 01:37:13;;;;;;;3.10;2.87;;;8.00;99.90;;;;;;5016673;28;20222;-67
2022/09/21 01:39:44;;;;;;;3.87;3.07;;;8.00;99.90;;;;;;5023249;28;20306;-67
2022/09/21 01:42:12;;;;;;;3.50;3.20;;;8.10;99.90;;;;;;5012555;28;20732;-67
2022/09/21 01:44:39;;;;;;;3.43;3.13;;;8.10;99.90;;;;;;5030477;28;20208;-68
2022/09/21 01:47:07;;;;;;;4.17;2.97;;;8.10;99.90;;;;;;5040309;28;20415;-68
2022/09/21 01:49:40;;;;;;;3.07;2.80;;;8.00;99.90;;;;;;5028104;28;20949;-68
2022/09/21 01:52:25;;;;;;;3.43;3.07;;;8.00;99.90;;;;;;5041156;28;20920;-68
2022/09/21 01:54:57;;;;;;;3.10;2.83;;;8.00;99.90;;;;;;5023287;28;20204;-68
2022/09/21 01:57:45;;;;;;;2.90;2.70;;;8.00;99.90;;;;;;5022545;28;20356;-67
2022/09/21 02:00:11;;;;;;;3.03;2.70;;;8.00;99.90;;;;;;5026044;28;20727;-67
2022/09/21 02:02:51;;;;;;;3.57;3.27;;;8.00;99.90;;;;;;5035142;28;20275;-67
2022/09/21 02:05:21;;;;;;;4.63;3.40;;;8.00;99.90;;;;;;5017642;28;20183;-67
2022/09/21 02:07:48;;;;;;;3.87;2.70;;;8.00;99.90;;;;;;5030232;28;20948;-67
2022/09/21 02:10:24;;;;;;;3.67;3.37;;;8.00;99.90;;;;;;5026344;28;20211;-67
2022/09/21 02:13:00;;;;;;;3.93;3.47;;;8.00;99.90;;;;;;5026058;28;20603;-66
2022/09/21 02:15:38;;;;;;;3.20;2.90;;;8.00;99.90;;;;;;5017699;28;20191;-67
2022/09/21 02:18:13;;;;;;;3.03;2.73;;;8.00;99.90;;;;;;5021686;28;20218;-67
2022/09/21 02:20:47;;;;;;;3.90;3.43;;;8.00;99.90;;;;;;5027682;28;20186;-68
2022/09/21 02:23:23;;;;;;;4.13;2.93;;;8.00;99.90;;;;;;5023842;28;20237;-68
2022/09/21 02:26:02;;;;;;;3.27;2.97;;;7.90;99.90;;;;;;5018525;28;20192;-67
2022/09/21 02:28:43;;;;;;;3.60;3.00;;;7.90;99.90;;;;;;5024790;28;20759;-67
2022/09/21 02:31:19;;;;;;;3.47;3.00;;;7.90;99.90;;;;;;5016122;28;20196;-67
2022/09/21 02:33:59;;;;;;;3.70;3.00;;;7.80;99.90;;;;;;5019716;28;20282;-67
2022/09/21 02:36:38;;;;;;;4.10;3.53;;;7.80;99.90;;;;;;5013296;28;20692;-67
2022/09/21 02:39:14;;;;;;;6.93;3.23;;;7.80;99.90;;;;;;5024823;28;20207;-67
2022/09/21 02:41:50;;;;;;;6.07;3.30;;;7.80;99.90;;;;;;5019933;28;20191;-67
2022/09/21 02:44:35;;;;;;;4.53;3.67;;;7.70;99.90;;;;;;5022578;28;20211;-67
2022/09/21 02:47:18;;;;;;;4.97;3.50;;;7.70;99.90;;;;;;5023157;28;20684;-67
2022/09/21 02:49:50;;;;;;;4.23;3.83;;;7.70;99.90;;;;;;5019669;28;20522;-66
2022/09/21 02:52:17;;;;;;;4.13;3.50;;;7.70;99.90;;;;;;5011035;28;20221;-67
2022/09/21 02:54:46;;;;;;;6.93;3.90;;;7.70;99.90;;;;;;5030487;28;20291;-67
2022/09/21 02:57:15;;;;;;;3.63;3.33;;;7.60;99.90;;;;;;5035591;28;20298;-67
2022/09/21 02:59:41;;;;;;;4.63;4.17;;;7.60;99.90;;;;;;5031056;28;20207;-67
2022/09/21 03:02:08;;;;;;;3.20;3.00;;;7.60;99.90;;;;;;5038397;28;20215;-67
2022/09/21 03:04:34;;;;;;;4.83;3.53;;;7.60;99.90;;;;;;5029270;28;20968;-67
2022/09/21 03:06:59;;;;;;;3.57;3.27;;;7.60;99.90;;;;;;5026895;28;20232;-68
2022/09/21 03:09:25;;;;;;;4.17;3.80;;;7.60;99.90;;;;;;5030834;28;20250;-67
2022/09/21 03:11:50;;;;;;;4.40;4.10;;;7.60;99.90;;;;;;5039642;28;20198;-68
2022/09/21 03:14:18;;;;;;;5.03;2.97;;;7.60;99.90;;;;;;5032811;28;20206;-69
2022/09/21 03:16:43;;;;;;;3.43;3.20;;;7.60;99.90;;;;;;5045798;28;20301;-69
2022/09/21 03:19:10;;;;;;;4.40;3.37;;;7.60;99.90;;;;;;5025087;28;20309;-67
2022/09/21 03:21:36;;;;;;;4.97;3.10;;;7.60;99.90;;;;;;5038559;28;20203;-68
2022/09/21 03:24:01;;;;;;;4.13;3.10;;;7.60;99.90;;;;;;5033156;28;20191;-68
2022/09/21 03:26:27;;;;;;;3.60;3.30;;;7.60;99.90;;;;;;5031002;28;20296;-68
2022/09/21 03:28:53;;;;;;;6.03;3.50;;;7.60;99.90;;;;;;5037130;28;20258;-68
2022/09/21 03:31:19;;;;;;;3.77;3.47;;;7.60;99.90;;;;;;5010396;28;20677;-68
2022/09/21 03:33:45;;;;;;;3.63;3.40;;;7.60;99.90;;;;;;5035036;28;20211;-68
2022/09/21 03:36:10;;;;;;;4.47;3.50;;;7.60;99.90;;;;;;5026318;28;20546;-68
2022/09/21 03:38:37;;;;;;;3.70;2.93;;;7.60;99.90;;;;;;5027745;28;20206;-68
2022/09/21 03:41:03;;;;;;;3.53;3.33;;;7.60;99.90;;;;;;5011086;28;20184;-69
2022/09/21 03:43:29;;;;;;;3.97;3.67;;;7.50;99.90;;;;;;5023852;28;20935;-68
2022/09/21 03:45:54;;;;;;;3.97;3.67;;;7.50;99.90;;;;;;5025770;28;20282;-68
2022/09/21 03:48:21;;;;;;;4.20;3.80;;;7.50;99.90;;;;;;5025241;28;20229;-68
2022/09/21 03:50:46;;;;;;;3.77;3.20;;;7.50;99.90;;;;;;5032930;28;20238;-67
2022/09/21 03:53:12;;;;;;;4.83;3.90;;;7.50;99.90;;;;;;5038979;28;20219;-68
2022/09/21 03:55:38;;;;;;;5.77;4.13;;;7.50;99.90;;;;;;5026362;28;20199;-67
2022/09/21 03:58:04;;;;;;;4.77;4.37;;;7.40;99.90;;;;;;5027363;28;20246;-67
2022/09/21 04:00:30;;;;;;;6.77;3.50;;;7.40;99.90;;;;;;5021419;28;20227;-66
2022/09/21 04:02:56;;;;;;;4.40;3.93;;;7.40;99.90;;;;;;5038130;28;20191;-66
2022/09/21 04:05:22;;;;;;;4.20;3.80;;;7.40;99.90;;;;;;5020019;28;20250;-66
2022/09/21 04:07:48;;;;;;;4.70;4.13;;;7.40;99.90;;;;;;5035299;28;20200;-66
2022/09/21 04:10:16;;;;;;;3.30;3.03;;;7.40;99.90;;;;;;5022521;28;20518;-66
2022/09/21 04:12:43;;;;;;;4.17;3.73;;;7.40;99.90;;;;;;5039604;28;20269;-66
2022/09/21 04:15:13;;;;;;;5.47;3.60;;;7.40;99.90;;;;;;5026750;28;20699;-66
2022/09/21 04:17:39;;;;;;;3.83;3.53;;;7.40;99.90;;;;;;5040446;28;20651;-66
2022/09/21 04:20:06;;;;;;;5.77;4.17;;;7.40;99.90;;;;;;5027524;28;20241;-66
2022/09/21 04:22:31;;;;;;;7.50;4.93;;;7.40;99.90;;;;;;5029510;28;20198;-66
2022/09/21 04:24:57;;;;;;;7.10;4.90;;;7.40;99.90;;;;;;5021743;28;20199;-65
2022/09/21 04:27:23;;;;;;;5.00;4.00;;;7.40;99.90;;;;;;5038264;28;20187;-66
2022/09/21 04:29:49;;;;;;;6.40;4.27;;;7.40;99.90;;;;;;5028021;28;20607;-67
2022/09/21 04:32:14;;;;;;;4.10;3.40;;;7.40;99.90;;;;;;5035481;28;20195;-67
2022/09/21 04:34:40;;;;;;;4.93;3.23;;;7.40;99.90;;;;;;5030364;28;20257;-67
2022/09/21 04:37:10;;;;;;;5.13;3.67;;;7.30;99.90;;;;;;5028745;28;20312;-67
2022/09/21 04:39:35;;;;;;;3.70;3.40;;;7.40;99.90;;;;;;5032723;28;20214;-68
2022/09/21 04:42:01;;;;;;;4.37;4.00;;;7.40;99.90;;;;;;5037383;28;20258;-67
2022/09/21 04:44:27;;;;;;;4.37;3.97;;;7.40;99.90;;;;;;5032119;28;20279;-68
2022/09/21 04:46:52;;;;;;;6.47;3.73;;;7.30;99.90;;;;;;5030619;28;20290;-68
2022/09/21 04:49:17;;;;;;;4.10;3.70;;;7.30;99.90;;;;;;5024860;28;20566;-68
2022/09/21 04:51:43;;;;;;;3.87;3.07;;;7.40;99.90;;;;;;5031583;28;20227;-68
2022/09/21 04:54:09;;;;;;;4.50;4.10;;;7.40;99.90;;;;;;5036151;28;20290;-68
2022/09/21 04:56:35;;;;;;;4.67;4.23;;;7.40;99.90;;;;;;5009611;28;20204;-67
2022/09/21 04:59:00;;;;;;;4.63;4.00;;;7.40;99.90;;;;;;5040817;28;20358;-68
2022/09/21 05:01:26;;;;;;;4.33;3.43;;;7.40;99.90;;;;;;5031766;28;20188;-67
2022/09/21 05:03:52;;;;;;;6.10;3.97;;;7.40;99.90;;;;;;5035124;28;20300;-67
2022/09/21 05:06:17;;;;;;;4.93;4.00;;;7.40;99.90;;;;;;5018847;28;20234;-68
2022/09/21 05:11:26;;;;;;;4.77;4.27;;;7.40;99.90;;;;;;5029629;28;20190;-67
2022/09/21 05:13:52;;;;;;;5.70;5.00;;;7.40;99.90;;;;;;5042740;28;20207;-67
2022/09/21 05:16:18;;;;;;;5.30;4.80;;;7.30;99.90;;;;;;5031895;28;20210;-67
2022/09/21 05:18:44;;;;;;;5.33;4.57;;;7.40;99.90;;;;;;5031428;28;20219;-66
2022/09/21 05:21:13;;;;;;;4.90;4.50;;;7.30;99.90;;;;;;5027613;28;20168;-67
2022/09/21 05:23:39;;;;;;;5.43;4.37;;;7.30;99.90;;;;;;5040348;28;20191;-67
2022/09/21 05:26:05;;;;;;;7.53;4.93;;;7.30;99.90;;;;;;5028634;28;20192;-67
2022/09/21 05:28:31;;;;;;;5.07;4.57;;;7.30;99.90;;;;;;5037312;28;20198;-67
2022/09/21 05:31:29;;;;;;;6.20;4.17;;;7.30;99.90;;;;;;5025269;28;20184;-67
2022/09/21 05:34:06;;;;;;;8.40;5.17;;;7.40;99.90;;;;;;5024458;28;20246;-67
2022/09/21 05:36:51;;;;;;;7.53;4.80;;;7.40;99.90;;;;;;5024541;28;20254;-67
2022/09/21 05:39:17;;;;;;;7.70;5.17;;;7.40;99.90;;;;;;5023369;28;20192;-67
2022/09/21 05:41:42;;;;;;;5.17;4.27;;;7.50;99.90;;;;;;5018619;28;20210;-67
2022/09/21 05:44:12;;;;;;;5.70;4.67;;;7.50;99.90;;;;;;5044061;28;20201;-67
2022/09/21 05:46:55;;;;;;;9.43;5.33;;;7.50;99.90;;;;;;5019915;28;20230;-67
2022/09/21 05:49:24;;;;;;;5.73;5.13;;;7.50;99.90;;;;;;5026064;28;20206;-66
2022/09/21 05:52:15;;;;;;;5.67;5.17;;;7.60;99.90;;;;;;5026176;28;20288;-67
2022/09/21 05:55:01;;;;;;;6.30;5.27;;;7.60;99.90;;;;;;5026243;28;20333;-68
2022/09/21 05:57:49;;;;;;;7.57;5.67;;;7.70;99.90;;;;;;5024056;28;20246;-67
2022/09/21 06:00:18;;;;;;;7.37;5.80;;;7.70;99.90;;;;;;5023372;28;20688;-69
2022/09/21 06:02:57;;;;;;;5.90;4.80;;;7.80;99.90;;;;;;5033899;28;20187;-68
2022/09/21 06:05:23;;;;;;;7.47;5.07;;;7.80;99.90;;;;;;5034947;28;20206;-67
2022/09/21 06:07:49;;;;;;;5.80;5.20;;;7.80;99.90;;;;;;5050013;28;20868;-67
2022/09/21 06:13:37;;;;;;;5.93;5.03;;;7.90;99.90;;;;;;5012157;28;20230;-66
2022/09/21 06:16:03;;;;;;;9.40;5.60;;;7.90;99.90;;;;;;5025704;28;20669;-67
2022/09/21 06:18:29;;;;;;;6.57;5.80;;;8.00;99.90;;;;;;5032302;28;20230;-68
2022/09/21 06:20:54;;;;;;;8.47;5.83;;;8.00;99.90;;;;;;5024180;28;20231;-68
2022/09/21 06:23:20;;;;;;;8.93;5.30;;;8.00;99.90;;;;;;5036374;28;20200;-68
2022/09/21 06:25:52;;;;;;;5.33;4.83;;;8.10;99.90;;;;;;5027023;28;20290;-68
2022/09/21 06:28:18;;;;;;;7.43;5.63;;;8.20;99.90;;;;;;5041093;28;20233;-67
2022/09/21 06:30:50;;;;;;;14.10;5.67;;;8.30;99.90;;;;;;5027888;28;20268;-67
2022/09/21 06:33:19;;;;;;;5.97;5.37;;;8.40;99.90;;;;;;5038208;28;20278;-68
2022/09/21 06:35:54;;;;;;;5.90;5.07;;;8.40;99.90;;;;;;5024237;28;20602;-67
2022/09/21 06:38:20;;;;;;;5.90;5.40;;;8.50;99.90;;;;;;5017145;28;20411;-67
2022/09/21 06:40:45;;;;;;;9.33;5.43;;;8.60;99.90;;;;;;5023874;28;20285;-68
2022/09/21 06:43:11;;;;;;;6.37;5.17;;;8.80;99.90;;;;;;5032840;28;20672;-68
2022/09/21 06:45:36;;;;;;;7.37;5.17;;;8.90;99.90;;;;;;5029411;28;20299;-68
2022/09/21 06:48:02;;;;;;;9.63;5.20;;;9.10;99.90;;;;;;5038792;28;20187;-68
2022/09/21 06:50:27;;;;;;;6.33;5.07;;;9.20;99.90;;;;;;5033719;28;20371;-67
2022/09/21 06:52:53;;;;;;;4.50;3.77;;;9.40;99.90;;;;;;5027240;28;20203;-68
2022/09/21 06:55:19;;;;;;;4.90;4.07;;;9.40;99.90;;;;;;5032140;28;20214;-68
2022/09/21 06:57:44;;;;;;;10.17;4.97;;;9.50;99.90;;;;;;5029819;28;20242;-68
2022/09/21 07:00:11;;;;;;;4.93;4.40;;;9.40;99.90;;;;;;5033362;28;20202;-67
2022/09/21 07:02:37;;;;;;;7.33;4.93;;;9.50;99.90;;;;;;5030227;28;20555;-68
2022/09/21 07:05:03;;;;;;;6.33;4.27;;;9.60;99.90;;;;;;5034480;28;20199;-67
2022/09/21 07:07:30;;;;;;;6.20;4.23;;;9.80;99.90;;;;;;5034845;28;20228;-68
2022/09/21 07:09:57;;;;;;;5.97;4.23;;;9.80;99.90;;;;;;5035339;28;20251;-67
2022/09/21 07:12:25;;;;;;;4.57;3.70;;;9.90;99.90;;;;;;5040531;28;20203;-68
2022/09/21 07:14:50;;;;;;;3.80;3.10;;;10.00;99.90;;;;;;5044184;28;20207;-68
2022/09/21 07:17:16;;;;;;;6.00;4.07;;;10.10;99.90;;;;;;5027281;28;20226;-67
2022/09/21 07:19:41;;;;;;;6.03;3.20;;;10.20;99.90;;;;;;5035620;28;20213;-68
2022/09/21 07:22:07;;;;;;;5.00;3.70;;;10.20;99.90;;;;;;5028599;28;20189;-68
2022/09/21 07:24:33;;;;;;;6.37;3.50;;;10.20;99.90;;;;;;5038433;28;20715;-67
2022/09/21 07:26:58;;;;;;;4.80;3.47;;;10.10;99.90;;;;;;5012345;28;20238;-67
2022/09/21 07:29:24;;;;;;;4.20;3.80;;;10.10;99.90;;;;;;5024973;28;20192;-68
2022/09/21 07:31:49;;;;;;;3.87;3.50;;;10.10;99.90;;;;;;5026470;28;20683;-67
2022/09/21 07:34:15;;;;;;;5.20;4.13;;;10.10;99.90;;;;;;5030872;28;20219;-67
2022/09/21 07:36:41;;;;;;;4.13;3.73;;;10.20;99.90;;;;;;5020358;28;20212;-67
2022/09/21 07:39:08;;;;;;;4.37;3.97;;;10.20;99.90;;;;;;5027234;28;20192;-67
2022/09/21 07:41:34;;;;;;;7.83;4.67;;;10.30;99.90;;;;;;5015083;28;20640;-66
2022/09/21 07:44:00;;;;;;;5.87;3.63;;;10.40;99.90;;;;;;5043065;28;20190;-67
2022/09/21 07:46:25;;;;;;;4.87;4.37;;;10.60;99.90;;;;;;5026474;28;20599;-67
2022/09/21 07:48:53;;;;;;;4.23;3.77;;;10.80;99.90;;;;;;5029819;28;20216;-68
2022/09/21 07:51:19;;;;;;;5.47;3.97;;;10.90;99.90;;;;;;5024355;28;20281;-68
2022/09/21 07:53:44;;;;;;;6.70;4.03;;;11.00;99.90;;;;;;5036575;28;20627;-68
2022/09/21 07:56:13;;;;;;;6.50;4.93;;;11.00;99.90;;;;;;5017088;28;20260;-69
2022/09/21 08:01:25;;;;;;;4.90;4.40;;;11.00;99.90;;;;;;5024122;28;20261;-69
2022/09/21 08:03:52;;;;;;;4.60;4.20;;;11.00;99.90;;;;;;5035345;28;20195;-68
2022/09/21 08:06:18;;;;;;;5.27;3.77;;;11.10;99.90;;;;;;5010321;28;20208;-68
2022/09/21 08:08:47;;;;;;;4.57;4.13;;;11.20;99.90;;;;;;5019221;28;20367;-67
2022/09/21 08:11:13;;;;;;;4.93;4.37;;;11.40;99.90;;;;;;5015984;28;20214;-69
2022/09/21 08:13:38;;;;;;;8.47;4.93;;;11.50;99.90;;;;;;5029820;28;20257;-69
2022/09/21 08:16:04;;;;;;;5.87;4.40;;;11.70;99.90;;;;;;5026022;28;20602;-69
2022/09/21 08:18:29;;;;;;;5.20;4.67;;;11.80;99.90;;;;;;5024382;28;20344;-68
2022/09/21 08:20:57;;;;;;;7.33;4.87;;;12.00;99.90;;;;;;5010287;28;20200;-68
2022/09/21 08:23:22;;;;;;;6.53;4.50;;;12.10;99.90;;;;;;5030338;28;20189;-68
2022/09/21 08:25:48;;;;;;;4.63;3.80;;;12.20;99.90;;;;;;5021942;28;20292;-69
2022/09/21 08:28:14;;;;;;;5.70;4.03;;;12.20;99.90;;;;;;5016826;28;20195;-71
2022/09/21 08:30:40;;;;;;;4.33;3.53;;;12.20;99.90;;;;;;5022352;28;20208;-69
2022/09/21 08:33:07;;;;;;;6.13;4.47;;;12.10;99.90;;;;;;5020478;28;20212;-69
2022/09/21 08:35:33;;;;;;;4.40;4.00;;;12.10;99.90;;;;;;5014498;28;20283;-67
2022/09/21 08:37:58;;;;;;;4.47;3.83;;;12.00;99.90;;;;;;5015909;28;20229;-68
2022/09/21 08:40:24;;;;;;;4.00;3.70;;;12.00;99.90;;;;;;5031201;28;20208;-68
2022/09/21 08:43:09;;;;;;;5.93;4.73;;;12.00;99.90;;;;;;5036968;28;20688;-68
2022/09/21 08:45:42;;;;;;;4.77;3.50;;;12.10;99.90;;;;;;5014961;28;20968;-67
2022/09/21 08:48:19;;;;;;;6.23;4.13;;;12.20;99.90;;;;;;5023533;28;20290;-67
2022/09/21 08:50:51;;;;;;;3.63;3.03;;;12.20;99.90;;;;;;5019224;28;20236;-67
2022/09/21 08:53:42;;;;;;;4.47;4.07;;;12.30;99.90;;;;;;5016877;28;20200;-67
2022/09/21 08:56:11;;;;;;;4.67;3.70;;;12.50;99.90;;;;;;5018728;28;20227;-68
2022/09/21 08:58:39;;;;;;;4.00;3.30;;;12.50;99.90;;;;;;5029887;28;20384;-67
2022/09/21 09:01:33;;;;;;;4.37;3.97;;;12.50;99.90;;;;;;5027070;28;20690;-66
2022/09/21 09:04:24;;;;;;;4.90;3.53;;;12.50;99.90;;;;;;5024512;28;20189;-68
2022/09/21 09:07:14;;;;;;;4.53;3.67;;;12.50;99.90;;;;;;5014331;28;20251;-69
2022/09/21 09:09:55;;;;;;;4.40;4.00;;;12.60;99.90;;;;;;5017629;28;20201;-69
2022/09/21 09:12:48;;;;;;;3.93;3.50;;;12.80;99.90;;;;;;5010753;28;20218;-69
2022/09/21 09:15:47;;;;;;;5.20;4.10;;;12.80;99.90;;;;;;5011024;28;20195;-70
2022/09/21 09:18:35;;;;;;;5.20;4.20;;;12.80;99.90;;;;;;5013665;28;20192;-70
2022/09/21 09:21:20;;;;;;;7.00;5.27;;;12.90;99.90;;;;;;5013876;28;20204;-71
2022/09/21 09:23:51;;;;;;;4.97;4.57;;;13.00;99.90;;;;;;5022530;28;20243;-69
2022/09/21 09:26:29;;;;;;;7.33;4.50;;;12.90;99.90;;;;;;5015886;28;20202;-80
2022/09/21 09:28:59;;;;;;;5.03;3.87;;;13.10;99.90;;;;;;5015266;28;20197;-77
2022/09/21 09:31:30;;;;;;;4.17;3.30;;;13.20;99.90;;;;;;5023212;28;20241;-85
2022/09/21 09:34:09;;;;;;;3.07;2.73;;;13.40;99.90;;;;;;5011862;28;20194;-79
2022/09/21 09:36:38;;;;;;;3.97;3.67;;;13.60;99.90;;;;;;5014988;28;20213;-61
2022/09/21 09:39:11;;;;;;;3.73;3.17;;;13.60;99.90;;;;;;5019572;28;20188;-61
2022/09/21 09:42:22;;;;;;;6.37;2.80;;;13.70;99.90;;;;;;5014398;28;20226;-65
2022/09/21 09:44:47;;;;;;;3.73;3.37;;;13.80;99.90;;;;;;5012359;28;20256;-64
2022/09/21 09:47:47;;;;;;;2.67;2.43;;;14.00;99.90;;;;;;5019564;28;20176;-65
2022/09/21 09:50:28;;;;;;;3.83;2.73;;;14.10;99.90;;;;;;5025552;28;20222;-65
2022/09/21 09:53:03;;;;;;;3.90;2.23;;;14.20;99.90;;;;;;5029547;28;20592;-67
2022/09/21 09:55:45;;;;;;;4.37;2.47;;;14.30;99.90;;;;;;5020101;28;20285;-67
2022/09/21 09:58:20;;;;;;;5.67;1.83;;;14.60;99.90;;;;;;5012410;28;20625;-68
2022/09/21 10:00:49;;;;;;;1.73;1.63;;;14.70;99.90;;;;;;5017388;28;20299;-69
2022/09/21 10:03:26;;;;;;;2.83;1.90;;;15.00;99.90;;;;;;5024011;28;20654;-69
2022/09/21 10:05:52;;;;;;;2.20;2.10;;;15.10;99.90;;;;;;5020414;28;20207;-67
2022/09/21 10:08:36;;;;;;;1.60;1.50;;;15.30;99.90;;;;;;5029287;28;20191;-68
2022/09/21 10:11:02;;;;;;;2.20;1.77;;;15.70;99.90;;;;;;5021764;28;20223;-67
2022/09/21 10:13:31;;;;;;;1.23;1.23;;;16.00;99.90;;;;;;5023754;28;20188;-66
2022/09/21 10:16:18;;;;;;;3.67;2.07;;;16.30;99.90;;;;;;5020616;28;20202;-67
2022/09/21 10:18:55;;;;;;;1.93;1.53;;;16.50;99.90;;;;;;5015531;28;20193;-68
2022/09/21 10:21:24;;;;;;;2.70;1.10;;;16.50;99.90;;;;;;5028817;28;20195;-68
2022/09/21 10:24:01;;;;;;;2.97;1.70;;;16.20;99.90;;;;;;5032950;28;20257;-68
2022/09/21 10:26:33;;;;;;;1.73;1.40;;;16.00;99.90;;;;;;5027851;28;20664;-68
2022/09/21 10:29:22;;;;;;;1.53;1.00;;;15.90;99.90;;;;;;5042999;28;20243;-67
2022/09/21 10:31:56;;;;;;;0.90;0.90;;;15.90;99.90;;;;;;5023645;28;20199;-67
2022/09/21 10:34:22;;;;;;;2.17;1.07;;;16.30;99.90;;;;;;5027729;28;20630;-66
2022/09/21 10:36:50;;;;;;;5.33;1.03;;;16.70;99.90;;;;;;5025059;28;20207;-70
2022/09/21 10:39:30;;;;;;;1.07;0.70;;;17.20;99.90;;;;;;5031681;28;20223;-70
2022/09/21 10:42:12;;;;;;;0.70;0.60;;;17.50;99.90;;;;;;5015243;28;20724;-69
2022/09/21 10:44:44;;;;;;;1.87;1.03;;;17.70;99.90;;;;;;5014774;28;20269;-69
2022/09/21 10:47:16;;;;;;;0.83;0.83;;;17.90;99.90;;;;;;5016618;28;20177;-70
2022/09/21 10:49:56;;;;;;;1.10;1.00;;;18.00;99.90;;;;;;5013870;28;20200;-68
2022/09/21 10:52:31;;;;;;;1.33;0.93;;;17.80;99.90;;;;;;5025483;28;20704;-69
2022/09/21 10:54:57;;;;;;;2.70;0.60;;;17.20;99.90;;;;;;5016392;28;20599;-69
2022/09/21 10:57:24;;;;;;;0.70;0.70;;;16.80;99.90;;;;;;5020766;28;20274;-69
2022/09/21 10:59:50;;;;;;;1.83;0.63;;;16.60;99.90;;;;;;5034343;28;20277;-69
2022/09/21 11:02:32;;;;;;;0.90;0.67;;;16.50;99.90;;;;;;5026679;28;20199;-69
2022/09/21 11:05:13;;;;;;;0.63;0.63;;;16.50;99.90;;;;;;5011850;28;20633;-69
2022/09/21 11:07:46;;;;;;;0.83;0.83;;;16.60;99.90;;;;;;5023031;28;20198;-83
2022/09/21 11:10:40;;;;;;;0.60;0.60;;;16.30;99.90;;;;;;5007005;28;20207;-63
2022/09/21 11:13:27;;;;;;;1.07;0.60;;;16.10;99.90;;;;;;5019500;28;20886;-64
2022/09/21 11:16:10;;;;;;;0.87;0.87;;;16.00;99.90;;;;;;5017115;28;20214;-63
2022/09/21 11:18:53;;;;;;;1.73;1.00;;;16.40;99.90;;;;;;5022334;28;20200;-66
2022/09/21 11:21:43;;;;;;;0.63;0.63;;;16.80;99.90;;;;;;5013577;28;20303;-65
2022/09/21 11:24:44;;;;;;;1.53;0.70;;;17.30;99.90;;;;;;5021605;28;20271;-65
2022/09/21 11:27:24;;;;;;;0.80;0.80;;;17.50;99.90;;;;;;5011188;28;20203;-65
2022/09/21 11:30:13;;;;;;;0.40;0.40;;;17.40;99.90;;;;;;5016738;28;20176;-66
2022/09/21 11:33:20;;;;;;;0.73;0.67;;;17.70;99.90;;;;;;5021865;28;20192;-68
2022/09/21 11:36:07;;;;;;;1.27;0.90;;;18.10;99.90;;;;;;5015194;28;20223;-65
2022/09/21 11:38:54;;;;;;;1.20;1.00;;;17.50;99.90;;;;;;5019434;28;20180;-67
2022/09/21 11:41:30;;;;;;;0.70;0.70;;;17.00;99.90;;;;;;5016418;28;20199;-66
2022/09/21 11:44:18;;;;;;;3.83;0.97;;;16.60;99.90;;;;;;5020260;28;20183;-66
2022/09/21 11:46:53;;;;;;;0.97;0.93;;;16.60;99.90;;;;;;5015903;28;20214;-65
2022/09/21 11:49:57;;;;;;;0.60;0.60;;;16.30;99.90;;;;;;5019312;28;20194;-65
2022/09/21 11:52:32;;;;;;;1.47;1.37;;;16.30;99.90;;;;;;5017830;28;20748;-66
2022/09/21 11:55:16;;;;;;;1.40;1.23;;;16.40;99.90;;;;;;5015593;28;20291;-66
2022/09/21 11:57:57;;;;;;;0.90;0.90;;;16.40;99.90;;;;;;5015879;28;20340;-70
2022/09/21 12:00:24;;;;;;;2.63;0.80;;;16.40;99.90;;;;;;5020203;28;20210;-65
2022/09/21 12:03:20;;;;;;;1.13;0.90;;;16.70;99.90;;;;;;5013518;28;20183;-66
2022/09/21 12:06:11;;;;;;;0.80;0.80;;;17.10;99.90;;;;;;5020246;28;20948;-66
2022/09/21 12:08:46;;;;;;;0.70;0.70;;;17.70;99.90;;;;;;5018489;28;20220;-66
2022/09/21 12:11:43;;;;;;;1.90;1.13;;;18.20;99.90;;;;;;5017395;28;20689;-78
2022/09/21 12:14:42;;;;;;;1.57;0.73;;;18.80;99.90;;;;;;5019359;28;20187;-67
2022/09/21 12:17:20;;;;;;;1.13;0.90;;;18.70;99.60;;;;;;5016036;28;20580;-68
2022/09/21 12:20:05;;;;;;;1.00;0.93;;;19.20;99.90;;;;;;5014866;28;20556;-68
2022/09/21 12:22:37;;;;;;;0.70;0.70;;;19.10;98.70;;;;;;5018945;28;20189;-68
2022/09/21 12:25:40;;;;;;;2.30;0.97;;;18.30;99.60;;;;;;5015581;28;20187;-68
2022/09/21 12:28:23;;;;;;;2.83;0.93;;;17.80;99.90;;;;;;5017240;28;20341;-66
2022/09/21 12:30:56;;;;;;;1.17;1.07;;;17.50;99.90;;;;;;5014886;28;20665;-67
2022/09/21 12:33:35;;;;;;;3.07;0.57;;;17.50;99.90;;;;;;5016856;28;20215;-65
2022/09/21 12:36:10;;;;;;;1.50;1.00;;;17.50;99.90;;;;;;5017135;28;20199;-67
2022/09/21 12:38:41;;;;;;;3.37;1.00;;;17.70;99.90;;;;;;5019400;28;20565;-67
2022/09/21 12:41:27;;;;;;;2.60;0.97;;;17.20;99.90;;;;;;5023859;28;20199;-67
2022/09/21 12:44:09;;;;;;;1.27;1.00;;;17.30;99.90;;;;;;5022717;28;20237;-68
2022/09/21 12:46:47;;;;;;;2.67;1.20;;;17.40;99.90;;;;;;5006695;28;20299;-66
2022/09/21 12:49:19;;;;;;;3.00;0.77;;;17.80;99.90;;;;;;5017800;28;20274;-77
2022/09/21 12:51:51;;;;;;;1.10;0.77;;;18.50;99.90;;;;;;5009817;28;20363;-65
2022/09/21 12:54:27;;;;;;;11.87;10.07;;;19.20;99.90;;;;;;5015304;28;20257;-66
2022/09/21 12:57:03;;;;;;;1.40;0.93;;;20.00;99.90;;;;;;5011668;28;20354;-67
2022/09/21 12:59:44;;;;;;;1.03;0.83;;;20.50;98.80;;;;;;5017482;28;20199;-65
2022/09/21 13:02:39;;;;;;;1.03;0.93;;;20.80;98.50;;;;;;5007935;28;20197;-65
2022/09/21 13:05:20;;;;;;;4.60;1.57;;;21.00;97.90;;;;;;5012679;28;20224;-66
2022/09/21 13:08:24;;;;;;;1.43;1.00;;;20.60;96.50;;;;;;5016348;28;20196;-67
2022/09/21 13:11:06;;;;;;;3.67;1.10;;;20.30;97.20;;;;;;5016816;28;20210;-66
2022/09/21 13:13:42;;;;;;;2.10;0.90;;;20.10;97.80;;;;;;5012434;28;20196;-65
2022/09/21 13:16:23;;;;;;;0.73;0.73;;;20.50;96.30;;;;;;5018938;28;20686;-66
2022/09/21 13:18:59;;;;;;;1.20;0.90;;;20.70;95.30;;;;;;5019002;28;20186;-66
2022/09/21 13:21:28;;;;;;;0.90;0.90;;;21.00;94.10;;;;;;5007647;28;20198;-66
2022/09/21 13:24:04;;;;;;;1.40;1.20;;;20.80;93.70;;;;;;5026507;28;20240;-65
2022/09/21 13:26:39;;;;;;;1.20;0.87;;;20.20;95.50;;;;;;5017788;28;20216;-65
2022/09/21 13:29:25;;;;;;;5.03;3.60;;;20.00;95.50;;;;;;5022367;28;20322;-65
2022/09/21 13:32:02;;;;;;;4.83;1.00;;;19.30;95.80;;;;;;5016427;28;20301;-69